Time;durP1;ratioP1;P1;durP2;ratioP2;P2;SDS_P1;SDS_P2;PMS_P1;PMS_P2;Temp;Humidity;BMP_temperature;BMP_pressure;BME280_temperature;BME280_humidity;BME280_pressure;Samples;Min_cycle;Max_cycle;Signal;HPM_P1;HPM_P2
2021/08/08 00:00:54;;;;;;;1.35;1.25;;;14.20;99.90;;;;;;5106797;28;20042;-82
2021/08/08 00:03:20;;;;;;;;;;;14.20;99.90;;;;;;5100445;28;20039;-79
2021/08/08 00:05:46;;;;;;;0.60;0.60;;;14.20;99.90;;;;;;5102258;28;19970;-77
2021/08/08 00:08:12;;;;;;;1.27;1.10;;;14.20;99.90;;;;;;5094058;28;20043;-80
2021/08/08 00:10:38;;;;;;;1.52;1.20;;;14.30;99.90;;;;;;5074459;28;20036;-81
2021/08/08 00:13:04;;;;;;;2.15;1.05;;;14.30;99.90;;;;;;5079056;28;20043;-76
2021/08/08 00:15:30;;;;;;;2.00;1.08;;;14.30;99.90;;;;;;5094804;28;20469;-80
2021/08/08 00:17:55;;;;;;;;;;;14.30;99.90;;;;;;5096158;28;20028;-77
2021/08/08 00:20:21;;;;;;;1.88;1.10;;;14.30;99.90;;;;;;5109659;27;19920;-78
2021/08/08 00:22:47;;;;;;;1.33;1.02;;;14.30;99.90;;;;;;5105657;28;20074;-80
2021/08/08 00:25:13;;;;;;;1.70;1.20;;;14.40;99.90;;;;;;5077825;28;20581;-81
2021/08/08 00:27:39;;;;;;;1.55;1.30;;;14.30;99.90;;;;;;5085002;28;20079;-78
2021/08/08 00:30:06;;;;;;;;;;;14.30;99.90;;;;;;5095231;28;20042;-82
2021/08/08 00:32:32;;;;;;;1.40;1.30;;;14.20;99.90;;;;;;5091648;28;19919;-80
2021/08/08 00:34:57;;;;;;;;;;;14.20;99.90;;;;;;5093760;28;20495;-79
2021/08/08 00:37:23;;;;;;;1.55;1.25;;;14.20;99.90;;;;;;5091582;28;19924;-78
2021/08/08 00:39:49;;;;;;;1.27;1.17;;;14.10;99.90;;;;;;5081513;28;20040;-77
2021/08/08 00:42:15;;;;;;;2.33;1.52;;;14.10;99.90;;;;;;5097586;28;20547;-80
2021/08/08 00:44:41;;;;;;;1.30;1.00;;;14.10;99.90;;;;;;5092690;28;20047;-77
2021/08/08 00:47:07;;;;;;;2.60;1.20;;;14.00;99.90;;;;;;5078165;28;20043;-77
2021/08/08 00:49:33;;;;;;;1.40;1.10;;;14.00;99.90;;;;;;5112965;28;20036;-79
2021/08/08 00:52:00;;;;;;;3.05;1.73;;;14.00;99.90;;;;;;5096330;28;20044;-79
2021/08/08 00:54:26;;;;;;;;;;;13.90;99.90;;;;;;5093804;28;20067;-78
2021/08/08 00:56:52;;;;;;;1.40;1.17;;;13.90;99.90;;;;;;5098815;28;19951;-80
2021/08/08 00:59:17;;;;;;;2.47;1.10;;;13.90;99.90;;;;;;5093540;28;20433;-78
2021/08/08 01:01:46;;;;;;;6.82;1.33;;;13.90;99.90;;;;;;5097722;28;20028;-76
2021/08/08 01:04:22;;;;;;;1.48;1.38;;;13.90;99.90;;;;;;5113190;28;20040;-81
2021/08/08 01:06:57;;;;;;;1.20;1.10;;;13.90;99.90;;;;;;5094211;28;20044;-79
2021/08/08 01:09:26;;;;;;;1.40;1.13;;;14.00;99.90;;;;;;5099021;28;20282;-80
2021/08/08 01:11:53;;;;;;;6.30;1.20;;;14.00;99.90;;;;;;5104806;28;20036;-81
2021/08/08 01:14:20;;;;;;;2.10;1.63;;;14.10;99.90;;;;;;5098590;28;20032;-81
2021/08/08 01:16:48;;;;;;;1.15;1.05;;;14.10;99.90;;;;;;5105662;28;20051;-81
2021/08/08 01:19:18;;;;;;;1.30;1.13;;;14.20;99.90;;;;;;5079961;28;20123;-79
2021/08/08 01:21:47;;;;;;;2.83;1.15;;;14.30;99.90;;;;;;5114635;28;20036;-82
2021/08/08 01:24:13;;;;;;;2.70;1.55;;;14.30;99.90;;;;;;5084244;28;20040;-81
2021/08/08 01:26:44;;;;;;;1.30;1.10;;;14.40;99.90;;;;;;5076169;28;20381;-83
2021/08/08 01:29:10;;;;;;;1.85;1.45;;;14.40;99.90;;;;;;5080492;28;20130;-80
2021/08/08 01:31:36;;;;;;;1.73;1.10;;;14.40;99.90;;;;;;5093852;28;20039;-80
2021/08/08 01:34:02;;;;;;;2.63;1.77;;;14.40;99.90;;;;;;5110342;28;20110;-80
2021/08/08 01:36:28;;;;;;;1.13;0.88;;;14.50;99.90;;;;;;5102782;28;20119;-81
2021/08/08 01:39:05;;;;;;;0.82;0.80;;;14.50;99.90;;;;;;5101093;28;20036;-78
2021/08/08 01:41:38;;;;;;;1.23;1.00;;;14.40;99.90;;;;;;5110170;28;20066;-83
2021/08/08 01:44:05;;;;;;;1.17;1.08;;;14.50;99.90;;;;;;5093264;28;20036;-81
2021/08/08 01:46:33;;;;;;;1.30;1.02;;;14.60;99.90;;;;;;5092866;28;20413;-80
2021/08/08 01:49:01;;;;;;;1.67;1.30;;;14.60;99.90;;;;;;5103659;28;20032;-79
2021/08/08 01:51:28;;;;;;;2.08;1.67;;;14.60;99.90;;;;;;5092502;28;20044;-79
2021/08/08 01:53:56;;;;;;;2.40;1.33;;;14.60;99.90;;;;;;5091639;28;20046;-79
2021/08/08 01:56:22;;;;;;;1.88;1.27;;;14.60;99.90;;;;;;5094173;28;20046;-79
2021/08/08 01:58:48;;;;;;;1.88;1.13;;;14.50;99.90;;;;;;5097323;28;20039;-79
2021/08/08 02:01:14;;;;;;;0.75;0.75;;;14.50;99.90;;;;;;5094465;28;20043;-80
2021/08/08 02:03:40;;;;;;;1.85;1.67;;;14.50;99.90;;;;;;5102543;28;20479;-81
2021/08/08 02:06:08;;;;;;;1.60;1.20;;;14.50;99.90;;;;;;5080761;28;20113;-80
2021/08/08 02:08:35;;;;;;;3.20;2.00;;;14.50;99.90;;;;;;5106764;28;20039;-81
2021/08/08 02:11:01;;;;;;;1.10;1.00;;;14.50;99.90;;;;;;5098195;28;20036;-81
2021/08/08 02:13:27;;;;;;;1.08;0.98;;;14.60;99.90;;;;;;5095337;28;20480;-82
2021/08/08 02:15:53;;;;;;;2.10;1.25;;;14.60;99.90;;;;;;5081002;28;20115;-82
2021/08/08 02:18:19;;;;;;;2.33;1.67;;;14.70;99.90;;;;;;5078290;28;20115;-81
2021/08/08 02:20:45;;;;;;;;;;;14.70;99.90;;;;;;5092390;28;20047;-83
2021/08/08 02:23:11;;;;;;;1.15;0.93;;;14.70;99.90;;;;;;5099292;28;20388;-81
2021/08/08 02:25:37;;;;;;;;;;;14.70;99.90;;;;;;5096515;28;20477;-81
2021/08/08 02:28:06;;;;;;;1.17;1.00;;;14.70;99.90;;;;;;5072383;28;19916;-82
2021/08/08 02:30:33;;;;;;;5.40;1.55;;;14.70;99.90;;;;;;5103659;28;20051;-79
2021/08/08 02:32:58;;;;;;;2.40;1.73;;;14.70;99.90;;;;;;5093385;28;20481;-80
2021/08/08 02:35:24;;;;;;;1.52;0.90;;;14.80;99.90;;;;;;5073929;28;20040;-79
2021/08/08 02:37:50;;;;;;;;;;;14.80;99.90;;;;;;5080626;28;20044;-80
2021/08/08 02:40:16;;;;;;;2.55;1.63;;;14.80;99.90;;;;;;5094679;28;20432;-79
2021/08/08 02:42:42;;;;;;;;;;;14.80;99.90;;;;;;5103362;28;20040;-78
2021/08/08 02:45:08;;;;;;;1.55;1.42;;;14.80;99.90;;;;;;5095733;28;19916;-79
2021/08/08 02:47:34;;;;;;;2.08;1.48;;;14.80;99.90;;;;;;5095322;28;20040;-80
2021/08/08 02:49:59;;;;;;;2.13;1.65;;;14.80;99.90;;;;;;5095238;28;20036;-80
2021/08/08 02:52:25;;;;;;;;;;;14.80;99.90;;;;;;5102874;28;20442;-79
2021/08/08 02:54:52;;;;;;;2.55;1.88;;;14.80;99.90;;;;;;5113604;28;19920;-79
2021/08/08 02:57:18;;;;;;;;;;;14.70;99.90;;;;;;5102460;28;20140;-81
2021/08/08 02:59:43;;;;;;;1.65;1.33;;;14.60;99.90;;;;;;5091380;28;19991;-79
2021/08/08 03:02:09;;;;;;;1.75;1.63;;;14.50;99.90;;;;;;5102643;28;20118;-81
2021/08/08 03:04:35;;;;;;;3.92;2.45;;;14.40;99.90;;;;;;5102734;28;20115;-80
2021/08/08 03:07:01;;;;;;;;;;;14.40;99.90;;;;;;5077525;28;20044;-79
2021/08/08 03:09:27;;;;;;;2.33;1.73;;;14.40;99.90;;;;;;5096314;28;19920;-80
2021/08/08 03:11:53;;;;;;;3.03;1.58;;;14.50;99.90;;;;;;5111892;28;20032;-80
2021/08/08 03:14:19;;;;;;;4.25;2.05;;;14.50;99.90;;;;;;5087257;28;20422;-80
2021/08/08 03:16:46;;;;;;;;;;;14.60;99.90;;;;;;5088402;28;20563;-81
2021/08/08 03:19:13;;;;;;;1.95;1.45;;;14.60;99.90;;;;;;5095848;28;20018;-79
2021/08/08 03:21:40;;;;;;;3.00;2.10;;;14.70;99.90;;;;;;5095671;28;20039;-79
2021/08/08 03:24:06;;;;;;;3.22;1.83;;;14.70;99.90;;;;;;5112831;27;20028;-79
2021/08/08 03:26:33;;;;;;;2.30;1.92;;;14.80;99.90;;;;;;5097398;28;20044;-80
2021/08/08 03:29:00;;;;;;;2.05;1.83;;;14.80;99.90;;;;;;5113104;28;20040;-79
2021/08/08 03:31:27;;;;;;;3.08;1.73;;;14.80;99.90;;;;;;5095032;28;20039;-81
2021/08/08 03:33:54;;;;;;;2.10;1.90;;;14.70;99.90;;;;;;5096955;28;20046;-79
2021/08/08 03:36:21;;;;;;;2.70;1.95;;;14.70;99.90;;;;;;5095922;28;21552;-79
2021/08/08 03:38:48;;;;;;;2.85;1.65;;;14.80;99.90;;;;;;5090264;28;20039;-80
2021/08/08 03:41:14;;;;;;;1.77;1.25;;;14.80;99.90;;;;;;5101388;28;20039;-81
2021/08/08 03:43:41;;;;;;;1.45;1.20;;;14.80;99.90;;;;;;5082615;28;20036;-79
2021/08/08 03:46:07;;;;;;;2.42;2.08;;;14.80;99.90;;;;;;5096705;28;20040;-80
2021/08/08 03:48:32;;;;;;;2.30;1.95;;;14.70;99.90;;;;;;5112624;28;20035;-81
2021/08/08 03:50:58;;;;;;;3.70;2.40;;;14.70;99.90;;;;;;5086299;28;20042;-81
2021/08/08 03:53:24;;;;;;;3.63;2.53;;;14.70;99.90;;;;;;5111309;27;20393;-81
2021/08/08 03:55:51;;;;;;;2.15;1.67;;;14.80;99.90;;;;;;5096555;28;20042;-81
2021/08/08 03:58:16;;;;;;;2.50;1.70;;;14.70;99.90;;;;;;5080489;28;20032;-83
2021/08/08 04:00:42;;;;;;;;;;;14.70;99.90;;;;;;5111061;28;20039;-82
2021/08/08 04:03:09;;;;;;;10.10;2.77;;;14.70;99.90;;;;;;5100945;28;19955;-81
2021/08/08 04:05:35;;;;;;;2.75;1.98;;;14.60;99.90;;;;;;5069446;28;20427;-81
2021/08/08 04:08:04;;;;;;;2.90;2.13;;;14.50;99.90;;;;;;5103409;28;20044;-82
2021/08/08 04:10:29;;;;;;;;;;;14.40;99.90;;;;;;5094380;28;20058;-81
2021/08/08 04:12:55;;;;;;;4.90;2.70;;;14.40;99.90;;;;;;5093620;28;19920;-79
2021/08/08 04:15:21;;;;;;;2.72;2.28;;;14.40;99.90;;;;;;5093245;28;20070;-80
2021/08/08 04:17:47;;;;;;;3.55;2.00;;;14.30;99.90;;;;;;5076402;28;20046;-80
2021/08/08 04:20:13;;;;;;;3.55;2.45;;;14.30;99.90;;;;;;5127296;27;20032;-80
2021/08/08 04:22:40;;;;;;;2.70;2.08;;;14.30;99.90;;;;;;5124437;27;20169;-80
2021/08/08 04:25:06;;;;;;;8.98;3.08;;;14.20;99.90;;;;;;5100138;28;20086;-81
2021/08/08 04:27:32;;;;;;;2.53;2.00;;;14.20;99.90;;;;;;5083457;28;20051;-80
2021/08/08 04:30:02;;;;;;;2.33;1.92;;;14.20;99.90;;;;;;5104168;28;20126;-81
2021/08/08 04:32:28;;;;;;;3.53;2.70;;;14.20;99.90;;;;;;5093469;28;20040;-81
2021/08/08 04:34:54;;;;;;;2.97;2.35;;;14.30;99.90;;;;;;5095976;28;20039;-80
2021/08/08 04:37:20;;;;;;;;;;;14.30;99.90;;;;;;5094980;28;20047;-81
2021/08/08 04:39:49;;;;;;;3.97;2.43;;;14.40;99.90;;;;;;5087504;28;19916;-80
2021/08/08 04:42:15;;;;;;;4.28;3.88;;;14.40;99.90;;;;;;5107583;28;20057;-81
2021/08/08 04:44:41;;;;;;;;;;;14.40;99.90;;;;;;5100674;28;20044;-82
2021/08/08 04:47:07;;;;;;;4.68;3.05;;;14.50;99.90;;;;;;5074315;28;19924;-80
2021/08/08 04:49:33;;;;;;;;;;;14.60;99.90;;;;;;5104143;28;20043;-79
2021/08/08 04:52:02;;;;;;;4.05;2.33;;;14.80;99.90;;;;;;5091899;28;20014;-80
2021/08/08 04:54:28;;;;;;;4.10;2.92;;;14.80;99.90;;;;;;5104410;28;20040;-79
2021/08/08 04:56:55;;;;;;;4.63;2.80;;;14.90;99.90;;;;;;5093054;28;20126;-81
2021/08/08 04:59:21;;;;;;;3.75;2.90;;;14.90;99.90;;;;;;5078691;28;20066;-80
2021/08/08 05:01:47;;;;;;;;;;;15.00;99.90;;;;;;5076217;28;20046;-80
2021/08/08 05:04:14;;;;;;;3.55;2.60;;;15.10;99.90;;;;;;5075249;28;19919;-80
2021/08/08 05:06:40;;;;;;;4.38;2.60;;;15.10;99.90;;;;;;5098851;28;20553;-80
2021/08/08 05:09:06;;;;;;;5.50;4.03;;;15.20;99.90;;;;;;5108010;28;20074;-80
2021/08/08 05:11:32;;;;;;;4.07;2.70;;;15.30;99.90;;;;;;5077775;28;20433;-81
2021/08/08 05:13:59;;;;;;;;;;;15.40;99.90;;;;;;5101847;28;20085;-81
2021/08/08 05:16:24;;;;;;;4.57;2.85;;;15.50;99.90;;;;;;5108839;28;19916;-81
2021/08/08 05:18:50;;;;;;;;;;;15.70;99.90;;;;;;5090825;28;20089;-81
2021/08/08 05:21:16;;;;;;;3.75;3.10;;;15.90;99.90;;;;;;5106288;28;19947;-81
2021/08/08 05:23:42;;;;;;;2.28;2.08;;;16.10;99.90;;;;;;5113993;27;20092;-79
2021/08/08 05:26:08;;;;;;;3.38;2.20;;;16.20;99.90;;;;;;5077485;28;20477;-82
2021/08/08 05:28:34;;;;;;;;;;;16.20;99.90;;;;;;5094495;28;20036;-79
2021/08/08 05:31:00;;;;;;;2.75;2.45;;;16.20;99.90;;;;;;5098533;28;20388;-80
2021/08/08 05:33:26;;;;;;;1.83;1.73;;;16.10;99.90;;;;;;5091857;28;20036;-77
2021/08/08 05:35:54;;;;;;;4.75;2.45;;;16.10;99.90;;;;;;5095860;28;20059;-78
2021/08/08 05:38:20;;;;;;;2.17;1.98;;;16.10;99.90;;;;;;5075134;28;20032;-80
2021/08/08 05:40:46;;;;;;;3.72;2.38;;;16.10;99.90;;;;;;5096057;28;20062;-78
2021/08/08 05:43:12;;;;;;;;;;;16.00;99.90;;;;;;5101843;28;20386;-81
2021/08/08 05:45:38;;;;;;;2.05;1.85;;;16.10;99.90;;;;;;5092880;28;19923;-80
2021/08/08 05:48:05;;;;;;;1.55;1.45;;;16.20;99.90;;;;;;5084515;28;20046;-80
2021/08/08 05:50:31;;;;;;;3.03;2.15;;;16.30;99.90;;;;;;5124609;27;20043;-81
2021/08/08 05:52:56;;;;;;;2.60;1.90;;;16.30;99.90;;;;;;5111727;28;20119;-78
2021/08/08 05:55:23;;;;;;;;;;;16.40;99.90;;;;;;5096016;28;20036;-78
2021/08/08 05:57:49;;;;;;;1.60;1.50;;;16.50;99.90;;;;;;5093184;28;19920;-79
2021/08/08 06:00:16;;;;;;;;;;;16.50;99.90;;;;;;5092433;28;20388;-79
2021/08/08 06:02:42;;;;;;;1.42;1.33;;;16.50;99.90;;;;;;5075508;28;20018;-79
2021/08/08 06:05:09;;;;;;;2.22;1.50;;;16.60;99.90;;;;;;5091544;28;20385;-80
2021/08/08 06:07:34;;;;;;;;;;;16.70;99.90;;;;;;5092221;28;20040;-81
2021/08/08 06:10:03;;;;;;;;;;;16.90;99.90;;;;;;5098446;28;19985;-81
2021/08/08 06:12:29;;;;;;;2.58;1.95;;;17.20;99.90;;;;;;5090712;28;19965;-80
2021/08/08 06:14:55;;;;;;;5.38;1.75;;;17.40;99.90;;;;;;5074097;28;20036;-81
2021/08/08 06:17:20;;;;;;;;;;;17.70;99.90;;;;;;5090467;28;20040;-79
2021/08/08 06:19:46;;;;;;;2.13;1.45;;;17.90;99.90;;;;;;5096914;28;20007;-79
2021/08/08 06:22:14;;;;;;;;;;;17.90;99.90;;;;;;5074575;28;20036;-78
2021/08/08 06:24:40;;;;;;;;;;;17.80;99.90;;;;;;5111585;28;19954;-80
2021/08/08 06:27:06;;;;;;;1.43;1.33;;;17.70;99.90;;;;;;5110996;28;19968;-80
2021/08/08 06:29:31;;;;;;;;;;;17.40;99.90;;;;;;5092783;28;20111;-78
2021/08/08 06:31:57;;;;;;;1.50;1.30;;;17.20;99.90;;;;;;5103443;28;20053;-77
2021/08/08 06:34:23;;;;;;;;;;;17.00;99.90;;;;;;5115041;28;20035;-79
2021/08/08 06:36:50;;;;;;;0.93;0.90;;;16.80;99.90;;;;;;5098706;28;19923;-80
2021/08/08 06:39:15;;;;;;;2.17;1.70;;;16.70;99.90;;;;;;5099967;28;20407;-80
2021/08/08 06:41:41;;;;;;;1.52;1.17;;;16.70;99.90;;;;;;5105076;28;20134;-79
2021/08/08 06:44:08;;;;;;;0.75;0.75;;;16.60;99.90;;;;;;5092036;28;20051;-81
2021/08/08 06:46:34;;;;;;;1.60;1.40;;;16.60;99.90;;;;;;5091792;28;20044;-80
2021/08/08 06:49:00;;;;;;;1.55;1.15;;;16.70;99.90;;;;;;5090863;28;20408;-80
2021/08/08 06:51:26;;;;;;;1.85;1.60;;;16.80;99.90;;;;;;5073617;28;20043;-80
2021/08/08 06:53:51;;;;;;;;;;;17.00;99.90;;;;;;5107291;28;20039;-78
2021/08/08 06:56:17;;;;;;;1.65;1.00;;;17.10;99.90;;;;;;5098226;28;19939;-81
2021/08/08 06:58:45;;;;;;;2.22;1.65;;;17.10;99.90;;;;;;5095257;28;20115;-81
2021/08/08 07:01:15;;;;;;;1.17;1.08;;;17.10;99.90;;;;;;5090413;28;20115;-79
2021/08/08 07:03:41;;;;;;;0.88;0.88;;;17.10;99.90;;;;;;5094672;28;20032;-79
2021/08/08 07:06:07;;;;;;;1.58;1.40;;;17.00;99.90;;;;;;5072422;28;20455;-79
2021/08/08 07:08:32;;;;;;;;;;;17.00;99.90;;;;;;5092192;28;20417;-79
2021/08/08 07:10:58;;;;;;;2.60;1.50;;;17.00;99.90;;;;;;5105681;28;19915;-81
2021/08/08 07:13:24;;;;;;;;;;;17.10;99.90;;;;;;5083334;28;20062;-79
2021/08/08 07:15:50;;;;;;;2.35;1.33;;;17.10;99.90;;;;;;5079518;28;20262;-82
2021/08/08 07:18:15;;;;;;;;;;;17.20;99.90;;;;;;5079257;28;20036;-79
2021/08/08 07:20:41;;;;;;;1.75;1.63;;;17.20;99.90;;;;;;5078497;28;19916;-76
2021/08/08 07:23:07;;;;;;;1.60;1.50;;;17.20;99.90;;;;;;5107261;28;20046;-78
2021/08/08 07:25:32;;;;;;;;;;;17.20;99.90;;;;;;5103193;28;20036;-78
2021/08/08 07:27:58;;;;;;;2.33;1.77;;;17.20;99.90;;;;;;5086975;28;19964;-77
2021/08/08 07:30:24;;;;;;;;;;;17.10;99.90;;;;;;5113308;27;20043;-76
2021/08/08 07:32:50;;;;;;;4.43;1.73;;;17.00;99.90;;;;;;5123534;27;19915;-76
2021/08/08 07:35:15;;;;;;;;;;;16.90;99.90;;;;;;5085705;28;20082;-79
2021/08/08 07:37:41;;;;;;;2.03;1.50;;;16.80;99.90;;;;;;5104797;28;20269;-78
2021/08/08 07:40:07;;;;;;;;;;;16.80;99.90;;;;;;5095875;28;20043;-78
2021/08/08 07:42:33;;;;;;;2.92;2.13;;;16.80;99.90;;;;;;5119747;27;19920;-81
2021/08/08 07:44:58;;;;;;;1.60;1.35;;;16.90;99.90;;;;;;5083774;28;20106;-82
2021/08/08 07:47:24;;;;;;;;;;;17.00;99.90;;;;;;5091744;28;20043;-82
2021/08/08 07:49:50;;;;;;;2.63;2.33;;;17.00;99.90;;;;;;5092535;28;19974;-82
2021/08/08 07:52:15;;;;;;;2.92;1.75;;;17.00;99.90;;;;;;5093038;28;20051;-82
2021/08/08 07:54:41;;;;;;;1.42;1.30;;;17.20;99.90;;;;;;5084283;28;20092;-80
2021/08/08 07:57:07;;;;;;;;;;;17.40;99.90;;;;;;5105909;28;20122;-83
2021/08/08 07:59:33;;;;;;;1.67;1.58;;;17.70;99.90;;;;;;5106853;28;19951;-83
2021/08/08 08:01:59;;;;;;;;;;;18.00;99.90;;;;;;5092873;28;20760;-79
2021/08/08 08:04:25;;;;;;;5.38;2.53;;;18.20;99.90;;;;;;5106430;28;20329;-79
2021/08/08 08:06:51;;;;;;;;;;;18.20;99.90;;;;;;5108175;28;20081;-81
2021/08/08 08:09:17;;;;;;;3.35;1.70;;;18.20;99.90;;;;;;5107968;27;20418;-82
2021/08/08 08:11:43;;;;;;;;;;;18.20;99.90;;;;;;5106288;28;20055;-79
2021/08/08 08:14:10;;;;;;;2.80;1.63;;;18.20;99.90;;;;;;5110516;28;19919;-78
2021/08/08 08:16:36;;;;;;;2.13;1.80;;;18.20;99.90;;;;;;5102177;28;20450;-79
2021/08/08 08:19:01;;;;;;;;;;;18.20;99.90;;;;;;5096734;28;20540;-83
2021/08/08 08:21:28;;;;;;;2.63;2.42;;;18.40;99.90;;;;;;5106929;28;19931;-82
2021/08/08 08:23:54;;;;;;;4.00;2.22;;;18.40;99.90;;;;;;5099310;28;20044;-82
2021/08/08 08:26:19;;;;;;;;;;;18.40;99.90;;;;;;5092832;28;20389;-82
2021/08/08 08:28:45;;;;;;;1.50;1.20;;;18.20;99.90;;;;;;5110862;28;19951;-80
2021/08/08 08:31:11;;;;;;;;;;;18.10;99.90;;;;;;5107278;28;20092;-80
2021/08/08 08:33:37;;;;;;;2.88;1.48;;;18.00;99.90;;;;;;5106057;28;20003;-81
2021/08/08 08:36:04;;;;;;;6.18;3.40;;;17.90;99.90;;;;;;5099263;28;20439;-84
2021/08/08 08:38:30;;;;;;;2.42;1.88;;;17.90;99.90;;;;;;5110059;28;20035;-82
2021/08/08 08:40:57;;;;;;;;;;;17.80;99.90;;;;;;5107870;28;20362;-81
2021/08/08 08:43:25;;;;;;;5.23;2.17;;;17.70;99.90;;;;;;5114964;28;19915;-81
2021/08/08 08:45:52;;;;;;;5.20;2.53;;;17.60;99.90;;;;;;5082482;28;20051;-83
2021/08/08 08:48:18;;;;;;;6.18;2.08;;;17.50;99.90;;;;;;5104779;28;20169;-79
2021/08/08 08:50:51;;;;;;;5.05;2.22;;;17.60;99.90;;;;;;5105571;27;20040;-81
2021/08/08 08:53:17;;;;;;;6.38;2.88;;;17.80;99.90;;;;;;5105767;28;20401;-82
2021/08/08 08:55:43;;;;;;;;;;;17.90;99.90;;;;;;5101175;28;20478;-81
2021/08/08 08:58:10;;;;;;;2.10;1.88;;;18.00;99.90;;;;;;5096701;28;19940;-78
2021/08/08 09:00:38;;;;;;;3.30;2.63;;;18.00;99.90;;;;;;5075279;28;20391;-80
2021/08/08 09:03:03;;;;;;;;;;;18.20;99.90;;;;;;5079110;28;20039;-81
2021/08/08 09:05:30;;;;;;;2.05;1.85;;;18.20;99.90;;;;;;5090657;28;20364;-79
2021/08/08 09:07:57;;;;;;;1.10;1.00;;;18.40;99.90;;;;;;5109387;28;20097;-77
2021/08/08 09:10:23;;;;;;;2.22;2.03;;;18.60;99.90;;;;;;5096837;28;20040;-80
2021/08/08 09:13:01;;;;;;;7.75;1.70;;;18.70;99.90;;;;;;5099283;28;20039;-77
2021/08/08 09:15:42;;;;;;;4.60;1.35;;;18.80;99.90;;;;;;5106543;28;20039;-79
2021/08/08 09:18:18;;;;;;;2.63;1.85;;;18.80;99.90;;;;;;5097533;28;20042;-80
2021/08/08 09:20:45;;;;;;;2.45;1.92;;;18.80;99.90;;;;;;5090249;28;20492;-81
2021/08/08 09:23:12;;;;;;;2.67;1.35;;;18.70;99.90;;;;;;5090911;28;20036;-81
2021/08/08 09:25:51;;;;;;;2.08;1.10;;;18.60;99.90;;;;;;5109294;28;20058;-80
2021/08/08 09:28:17;;;;;;;2.13;1.45;;;18.60;99.90;;;;;;5106321;28;20411;-81
2021/08/08 09:30:43;;;;;;;3.42;1.52;;;18.50;99.90;;;;;;5090076;28;20048;-78
2021/08/08 09:33:11;;;;;;;1.98;1.38;;;18.60;99.90;;;;;;5083835;28;20460;-80
2021/08/08 09:35:39;;;;;;;3.67;1.65;;;18.50;99.90;;;;;;5106912;27;20046;-80
2021/08/08 09:38:10;;;;;;;1.95;1.40;;;18.50;99.90;;;;;;5103611;28;20036;-82
2021/08/08 09:40:41;;;;;;;1.70;1.45;;;18.60;99.90;;;;;;5090611;28;20105;-81
2021/08/08 09:43:09;;;;;;;2.13;1.52;;;18.60;99.90;;;;;;5105532;28;20455;-80
2021/08/08 09:45:40;;;;;;;2.50;1.73;;;18.70;99.90;;;;;;5089820;28;20124;-77
2021/08/08 09:48:09;;;;;;;1.95;1.20;;;18.70;99.90;;;;;;5078685;28;20039;-79
2021/08/08 09:50:35;;;;;;;1.77;1.27;;;18.60;99.90;;;;;;5075296;28;20234;-81
2021/08/08 09:53:03;;;;;;;7.10;2.35;;;18.50;99.90;;;;;;5101206;28;20035;-79
2021/08/08 09:55:31;;;;;;;1.58;1.25;;;18.50;99.90;;;;;;5089120;28;20525;-79
2021/08/08 09:57:58;;;;;;;1.65;1.25;;;18.50;99.90;;;;;;5070229;28;20352;-79
2021/08/08 10:00:38;;;;;;;1.50;1.40;;;18.70;99.90;;;;;;5077559;28;20047;-79
2021/08/08 10:03:07;;;;;;;2.50;1.33;;;18.90;99.90;;;;;;5098060;28;20044;-81
2021/08/08 10:05:34;;;;;;;3.95;1.55;;;18.90;99.90;;;;;;5101339;28;20055;-81
2021/08/08 10:08:14;;;;;;;2.88;1.80;;;19.00;99.90;;;;;;5098223;28;20497;-82
2021/08/08 10:10:42;;;;;;;1.83;1.45;;;18.90;99.90;;;;;;5112254;27;20036;-80
2021/08/08 10:13:15;;;;;;;10.70;2.50;;;19.00;99.90;;;;;;5104615;28;20043;-81
2021/08/08 10:15:46;;;;;;;1.42;1.30;;;19.10;99.90;;;;;;5090707;28;20456;-81
2021/08/08 10:18:17;;;;;;;7.03;1.58;;;19.20;99.90;;;;;;5105858;28;20032;-78
2021/08/08 10:20:44;;;;;;;2.63;1.73;;;19.50;99.90;;;;;;5094920;28;20047;-81
2021/08/08 10:23:15;;;;;;;1.55;1.45;;;19.80;99.90;;;;;;5094181;28;20031;-81
2021/08/08 10:25:44;;;;;;;1.73;1.35;;;19.80;99.90;;;;;;5089119;28;20032;-81
2021/08/08 10:28:11;;;;;;;1.83;1.27;;;20.00;99.90;;;;;;5089492;28;20043;-80
2021/08/08 10:30:38;;;;;;;1.85;1.58;;;20.10;99.90;;;;;;5103889;28;20054;-79
2021/08/08 10:33:06;;;;;;;4.57;1.88;;;20.20;99.90;;;;;;5110191;28;20051;-81
2021/08/08 10:35:43;;;;;;;9.30;1.38;;;20.30;99.90;;;;;;5094303;28;20430;-81
2021/08/08 10:38:12;;;;;;;2.17;1.40;;;20.40;99.90;;;;;;5101843;28;20046;-78
2021/08/08 10:40:39;;;;;;;7.63;1.48;;;20.50;99.90;;;;;;5094474;28;20040;-80
2021/08/08 10:43:07;;;;;;;3.33;2.22;;;20.60;99.90;;;;;;5099335;28;20040;-80
2021/08/08 10:45:36;;;;;;;1.67;1.48;;;20.70;99.90;;;;;;5095790;28;20036;-79
2021/08/08 10:48:06;;;;;;;2.10;1.75;;;20.80;99.90;;;;;;5090641;28;20036;-79
2021/08/08 10:50:41;;;;;;;5.40;2.20;;;20.90;99.90;;;;;;5075523;28;20548;-79
2021/08/08 10:53:22;;;;;;;2.10;1.75;;;21.20;99.90;;;;;;5106022;28;20062;-79
2021/08/08 10:55:50;;;;;;;2.00;1.42;;;21.40;99.90;;;;;;5111169;28;20111;-80
2021/08/08 10:58:16;;;;;;;5.90;1.70;;;21.60;99.90;;;;;;5096145;28;20047;-78
2021/08/08 11:00:44;;;;;;;3.40;1.88;;;21.70;99.90;;;;;;5083215;28;20031;-78
2021/08/08 11:03:15;;;;;;;2.08;1.50;;;21.60;99.90;;;;;;5110011;28;20040;-80
2021/08/08 11:05:43;;;;;;;2.88;1.70;;;21.50;99.90;;;;;;5118080;27;20059;-82
2021/08/08 11:08:10;;;;;;;8.07;1.88;;;21.50;99.90;;;;;;5084084;28;20032;-81
2021/08/08 11:10:40;;;;;;;2.00;1.52;;;21.30;99.90;;;;;;5083307;28;20036;-79
2021/08/08 11:13:22;;;;;;;4.55;1.95;;;21.30;99.90;;;;;;5114432;27;20050;-80
2021/08/08 11:15:48;;;;;;;7.28;1.67;;;21.40;99.90;;;;;;5114070;28;20031;-79
2021/08/08 11:18:15;;;;;;;2.63;1.88;;;21.20;99.90;;;;;;5106526;28;20036;-78
2021/08/08 11:20:41;;;;;;;1.85;1.38;;;20.90;99.90;;;;;;5115524;27;20043;-78
2021/08/08 11:23:07;;;;;;;8.68;1.98;;;20.60;99.90;;;;;;5082525;28;20036;-78
2021/08/08 11:25:43;;;;;;;4.17;1.50;;;20.30;99.90;;;;;;5099154;28;20066;-79
2021/08/08 11:28:10;;;;;;;3.15;1.58;;;20.00;99.90;;;;;;5103697;28;20035;-79
2021/08/08 11:30:45;;;;;;;1.15;0.95;;;19.90;99.90;;;;;;5109214;28;20120;-76
2021/08/08 11:33:13;;;;;;;6.45;2.22;;;19.80;99.90;;;;;;5110194;28;20493;-79
2021/08/08 11:35:40;;;;;;;5.90;1.63;;;20.00;99.90;;;;;;5099938;27;20122;-78
2021/08/08 11:38:19;;;;;;;3.30;1.75;;;20.10;99.90;;;;;;5104365;28;20525;-77
2021/08/08 11:40:47;;;;;;;2.03;1.70;;;20.10;99.90;;;;;;5108117;28;20036;-80
2021/08/08 11:43:14;;;;;;;1.02;0.90;;;20.10;99.90;;;;;;5111415;28;20141;-78
2021/08/08 11:45:48;;;;;;;1.23;1.00;;;20.30;99.90;;;;;;5106098;28;20043;-81
2021/08/08 11:48:20;;;;;;;1.60;1.50;;;20.50;99.90;;;;;;5109126;28;20040;-78
2021/08/08 11:51:01;;;;;;;2.30;1.40;;;20.60;99.90;;;;;;5085058;28;20078;-78
2021/08/08 11:53:36;;;;;;;3.83;2.22;;;20.70;99.90;;;;;;5093205;28;20047;-81
2021/08/08 11:56:16;;;;;;;2.00;1.52;;;20.80;99.90;;;;;;5107855;28;20100;-80
2021/08/08 11:58:50;;;;;;;2.67;1.35;;;20.90;99.90;;;;;;5089669;28;20043;-77
2021/08/08 12:01:20;;;;;;;5.65;1.38;;;21.10;99.90;;;;;;5108115;28;20485;-79
2021/08/08 12:03:47;;;;;;;1.75;1.52;;;21.20;99.90;;;;;;5109401;28;20046;-78
2021/08/08 12:06:14;;;;;;;1.65;1.38;;;21.20;99.90;;;;;;5113231;27;20495;-80
2021/08/08 12:08:41;;;;;;;5.68;1.55;;;21.20;99.90;;;;;;5070821;28;20036;-80
2021/08/08 12:11:06;;;;;;;3.78;1.67;;;21.40;99.90;;;;;;5087069;28;20035;-78
2021/08/08 12:13:32;;;;;;;2.88;1.35;;;21.40;99.90;;;;;;5096009;28;20062;-80
2021/08/08 12:15:58;;;;;;;3.38;1.85;;;21.20;99.90;;;;;;5098875;28;20047;-77
2021/08/08 12:18:27;;;;;;;;;;;20.80;99.90;;;;;;5091648;28;20039;-78
2021/08/08 12:20:53;;;;;;;2.17;1.50;;;20.60;99.90;;;;;;5098006;28;20373;-79
2021/08/08 12:23:24;;;;;;;1.55;1.30;;;20.40;99.90;;;;;;5110555;28;20070;-81
2021/08/08 12:26:03;;;;;;;5.80;1.70;;;20.40;99.90;;;;;;5090074;28;20036;-80
2021/08/08 12:28:29;;;;;;;1.45;1.27;;;20.60;99.90;;;;;;5093440;28;20051;-78
2021/08/08 12:31:09;;;;;;;3.53;1.23;;;20.70;99.90;;;;;;5098387;28;20035;-77
2021/08/08 12:33:36;;;;;;;5.35;1.75;;;20.70;99.90;;;;;;5098631;28;20035;-77
2021/08/08 12:36:10;;;;;;;2.97;1.85;;;21.00;99.90;;;;;;5106785;27;20529;-80
2021/08/08 12:38:48;;;;;;;1.95;1.63;;;21.30;99.90;;;;;;5062052;28;20057;-77
2021/08/08 12:41:28;;;;;;;3.35;1.58;;;21.50;99.90;;;;;;5102437;28;20036;-77
2021/08/08 12:44:00;;;;;;;3.05;1.83;;;21.80;99.90;;;;;;5096979;28;20098;-79
2021/08/08 12:46:39;;;;;;;4.65;1.55;;;21.60;99.90;;;;;;5083002;28;20142;-79
2021/08/08 12:49:10;;;;;;;3.22;1.40;;;21.30;99.90;;;;;;5104549;28;20386;-80
2021/08/08 12:51:41;;;;;;;3.55;1.60;;;20.90;99.90;;;;;;5101607;28;20043;-81
2021/08/08 12:54:07;;;;;;;1.70;1.25;;;20.70;99.90;;;;;;5084012;28;20055;-77
2021/08/08 12:56:33;;;;;;;12.98;2.28;;;20.70;99.90;;;;;;5089798;28;20047;-81
2021/08/08 12:58:59;;;;;;;4.20;1.48;;;20.70;99.90;;;;;;5087015;28;20131;-80
2021/08/08 13:01:32;;;;;;;1.58;1.20;;;20.80;99.90;;;;;;5112474;28;20426;-80